createdAt,value
2022-09-12T00:01:22.399Z,15.79
2022-09-12T00:03:54.502Z,15.79
2022-09-12T00:06:28.429Z,15.79
2022-09-12T00:08:59.982Z,15.77
2022-09-12T00:11:28.100Z,15.78
2022-09-12T00:13:58.301Z,15.73
2022-09-12T00:16:28.234Z,15.73
2022-09-12T00:18:56.291Z,15.80
2022-09-12T00:21:24.127Z,15.77
2022-09-12T00:23:51.797Z,15.76
2022-09-12T00:26:21.042Z,15.72
2022-09-12T00:28:49.192Z,15.74
2022-09-12T00:31:19.763Z,15.72
2022-09-12T00:33:47.707Z,15.69
2022-09-12T00:36:25.685Z,15.69
2022-09-12T00:38:54.741Z,15.61
2022-09-12T00:41:34.822Z,15.55
2022-09-12T00:44:10.695Z,15.54
2022-09-12T00:46:46.268Z,15.54
2022-09-12T00:49:38.977Z,15.52
2022-09-12T00:52:16.727Z,15.49
2022-09-12T00:55:02.897Z,15.47
2022-09-12T00:57:34.908Z,15.50
2022-09-12T01:00:15.420Z,15.46
2022-09-12T01:02:45.451Z,15.45
2022-09-12T01:05:13.937Z,15.48
2022-09-12T01:07:42.591Z,15.45
2022-09-12T01:10:10.620Z,15.46
2022-09-12T01:12:41.271Z,15.40
2022-09-12T01:15:10.212Z,15.40
2022-09-12T01:17:57.959Z,15.31
2022-09-12T01:20:44.044Z,15.33
2022-09-12T01:23:43.894Z,15.31
2022-09-12T01:26:58.926Z,15.33
2022-09-12T01:29:51.251Z,15.34
2022-09-12T01:32:26.498Z,15.34
2022-09-12T01:34:58.747Z,15.27
2022-09-12T01:37:48.987Z,15.31
2022-09-12T01:40:27.250Z,15.25
2022-09-12T01:43:18.445Z,15.19
2022-09-12T01:46:01.094Z,15.24
2022-09-12T01:48:36.059Z,15.20
2022-09-12T01:51:13.751Z,15.10
2022-09-12T01:53:53.244Z,15.13
2022-09-12T01:56:26.570Z,15.13
2022-09-12T01:59:05.138Z,15.13
2022-09-12T02:01:36.184Z,15.07
2022-09-12T02:04:10.812Z,15.08
2022-09-12T02:06:52.895Z,15.10
2022-09-12T02:09:34.407Z,15.08
2022-09-12T02:12:03.978Z,15.10
2022-09-12T02:14:36.908Z,15.06
2022-09-12T02:17:11.943Z,15.02
2022-09-12T02:19:49.364Z,15.07
2022-09-12T02:22:20.541Z,15.05
2022-09-12T02:24:52.630Z,15.01
2022-09-12T02:27:22.658Z,15.06
2022-09-12T02:29:51.105Z,15.03
2022-09-12T02:32:33.249Z,15.01
2022-09-12T02:35:07.249Z,15.01
2022-09-12T02:37:49.393Z,14.98
2022-09-12T02:40:18.594Z,15.00
2022-09-12T02:42:46.371Z,14.96
2022-09-12T02:45:13.851Z,15.00
2022-09-12T02:47:50.217Z,15.00
2022-09-12T02:50:18.080Z,15.03
2022-09-12T02:52:46.646Z,14.94
2022-09-12T02:55:14.896Z,14.96
2022-09-12T02:57:42.416Z,14.97
2022-09-12T03:00:10.701Z,14.92
2022-09-12T03:02:47.308Z,14.90
2022-09-12T03:05:38.024Z,14.89
2022-09-12T03:08:33.581Z,14.82
2022-09-12T03:11:22.950Z,14.82
2022-09-12T03:14:10.153Z,14.72
2022-09-12T03:17:02.767Z,14.73
2022-09-12T03:19:45.609Z,14.69
2022-09-12T03:22:29.152Z,14.75
2022-09-12T03:25:12.994Z,14.70
2022-09-12T03:28:07.441Z,14.65
2022-09-12T03:30:43.368Z,14.66
2022-09-12T03:33:16.080Z,14.66
2022-09-12T03:35:43.982Z,14.62
2022-09-12T03:38:11.687Z,14.65
2022-09-12T03:40:39.672Z,14.61
2022-09-12T03:43:08.688Z,14.61
2022-09-12T03:45:37.467Z,14.57
2022-09-12T03:48:07.026Z,14.56
2022-09-12T03:50:34.666Z,14.58
2022-09-12T03:53:03.783Z,14.46
2022-09-12T03:55:31.313Z,14.43
2022-09-12T03:57:58.765Z,14.38
2022-09-12T04:00:26.504Z,14.42
2022-09-12T04:02:56.234Z,14.34
2022-09-12T04:05:24.590Z,14.34
2022-09-12T04:07:52.129Z,14.35
2022-09-12T04:10:19.946Z,14.34
2022-09-12T04:12:47.357Z,14.33
2022-09-12T04:15:14.867Z,14.33
2022-09-12T04:17:42.938Z,14.30
2022-09-12T04:20:10.856Z,14.33
2022-09-12T04:22:38.253Z,14.30
2022-09-12T04:25:06.673Z,14.33
2022-09-12T04:27:34.076Z,14.32
2022-09-12T04:30:02.450Z,14.33
2022-09-12T04:32:31.329Z,14.28
2022-09-12T04:34:58.770Z,14.27
2022-09-12T04:37:26.253Z,14.30
2022-09-12T04:39:57.921Z,14.35
2022-09-12T04:42:25.525Z,14.34
2022-09-12T04:44:52.943Z,14.38
2022-09-12T04:47:20.748Z,14.36
2022-09-12T04:49:51.174Z,14.41
2022-09-12T04:52:18.589Z,14.43
2022-09-12T04:54:46.282Z,14.46
2022-09-12T04:57:13.685Z,14.44
2022-09-12T04:59:41.160Z,14.42
2022-09-12T05:02:08.901Z,14.49
2022-09-12T05:04:36.377Z,14.48
2022-09-12T05:07:03.948Z,14.55
2022-09-12T05:09:31.981Z,14.58
2022-09-12T05:12:04.161Z,14.59
2022-09-12T05:14:33.213Z,14.60
2022-09-12T05:17:01.796Z,14.56
2022-09-12T05:19:31.026Z,14.55
2022-09-12T05:21:59.628Z,14.54
2022-09-12T05:24:27.102Z,14.59
2022-09-12T05:26:54.572Z,14.58
2022-09-12T05:29:22.256Z,14.62
2022-09-12T05:31:52.112Z,14.64
2022-09-12T05:34:21.123Z,14.68
2022-09-12T05:36:49.196Z,14.72
2022-09-12T05:39:16.817Z,14.77
2022-09-12T05:41:44.380Z,14.82
2022-09-12T05:44:14.276Z,14.84
2022-09-12T05:46:44.389Z,14.87
2022-09-12T05:49:13.663Z,14.84
2022-09-12T05:51:44.484Z,14.91
2022-09-12T05:54:14.544Z,14.92
2022-09-12T05:56:44.049Z,14.96
2022-09-12T05:59:15.411Z,14.96
2022-09-12T06:01:43.323Z,15.11
2022-09-12T06:04:12.138Z,15.14
2022-09-12T06:06:47.414Z,15.19
2022-09-12T06:09:16.603Z,15.30
2022-09-12T06:11:46.451Z,15.41
2022-09-12T06:14:15.555Z,15.57
2022-09-12T06:16:43.524Z,15.76
2022-09-12T06:19:19.589Z,16.07
2022-09-12T06:21:49.591Z,16.40
2022-09-12T06:24:18.729Z,16.68
2022-09-12T06:26:47.551Z,16.91
2022-09-12T06:29:15.779Z,17.21
2022-09-12T06:31:44.100Z,17.52
2022-09-12T06:34:14.666Z,17.77
2022-09-12T06:36:48.100Z,18.01
2022-09-12T06:39:18.299Z,18.18
2022-09-12T06:41:46.234Z,18.34
2022-09-12T06:44:19.401Z,18.64
2022-09-12T06:46:47.290Z,18.73
2022-09-12T06:49:14.979Z,19.00
2022-09-12T06:51:42.768Z,19.19
2022-09-12T06:54:14.119Z,19.26
2022-09-12T06:56:41.684Z,19.58
2022-09-12T06:59:09.287Z,19.69
2022-09-12T07:01:37.360Z,19.93
2022-09-12T07:04:05.318Z,20.05
2022-09-12T07:06:38.329Z,20.19
2022-09-12T07:09:08.181Z,20.38
2022-09-12T07:11:38.105Z,20.58
2022-09-12T07:14:07.600Z,20.72
2022-09-12T07:16:36.768Z,20.82
2022-09-12T07:19:06.612Z,20.99
2022-09-12T07:21:39.763Z,21.18
2022-09-12T07:24:10.257Z,21.29
2022-09-12T07:26:40.225Z,21.46
2022-09-12T07:29:35.283Z,21.46
2022-09-12T07:32:01.858Z,21.61
2022-09-12T07:34:29.259Z,21.93
2022-09-12T07:36:56.648Z,22.00
2022-09-12T07:39:24.385Z,22.11
2022-09-12T07:41:51.764Z,22.29
2022-09-12T07:44:19.163Z,22.60
2022-09-12T07:46:46.941Z,22.59
2022-09-12T07:49:14.415Z,22.70
2022-09-12T07:51:41.807Z,22.80
2022-09-12T07:54:10.033Z,22.99
2022-09-12T07:56:39.453Z,23.07
2022-09-12T07:59:08.862Z,23.14
2022-09-12T08:01:36.630Z,23.25
2022-09-12T08:04:05.292Z,23.53
2022-09-12T08:06:35.917Z,23.51
2022-09-12T08:09:05.451Z,23.65
2022-09-12T08:11:32.880Z,23.75
2022-09-12T08:14:02.995Z,23.83
2022-09-12T08:16:31.898Z,23.85
2022-09-12T08:19:02.291Z,24.02
2022-09-12T08:21:31.971Z,23.99
2022-09-12T08:24:05.949Z,23.90
2022-09-12T08:26:34.867Z,24.16
2022-09-12T08:29:02.602Z,24.28
2022-09-12T08:31:36.375Z,24.56
2022-09-12T08:34:05.718Z,24.73
2022-09-12T08:36:34.014Z,24.62
2022-09-12T08:39:04.674Z,24.60
2022-09-12T08:41:40.709Z,24.81
2022-09-12T08:44:08.882Z,24.56
2022-09-12T08:46:57.290Z,24.24
2022-09-12T08:49:33.745Z,24.03
2022-09-12T08:52:15.650Z,24.22
2022-09-12T08:54:45.592Z,24.56
2022-09-12T08:57:15.615Z,24.38
2022-09-12T08:59:48.393Z,24.23
2022-09-12T09:02:53.876Z,23.73
2022-09-12T09:05:40.133Z,24.40
2022-09-12T09:08:30.023Z,24.65
2022-09-12T09:11:24.743Z,24.72
2022-09-12T09:14:33.416Z,24.88
2022-09-12T09:17:02.125Z,25.15
2022-09-12T09:19:40.927Z,25.46
2022-09-12T09:22:15.967Z,25.81
2022-09-12T09:24:49.382Z,26.07
2022-09-12T09:27:39.935Z,25.61
2022-09-12T09:30:15.789Z,25.48
2022-09-12T09:32:47.882Z,25.78
2022-09-12T09:35:18.919Z,25.09
2022-09-12T09:38:06.759Z,25.09
2022-09-12T09:40:57.658Z,25.39
2022-09-12T09:43:29.199Z,25.99
2022-09-12T09:46:01.981Z,26.17
2022-09-12T09:48:37.710Z,25.96
2022-09-12T09:51:08.055Z,25.57
2022-09-12T09:54:17.389Z,26.04
2022-09-12T09:56:45.664Z,26.14
2022-09-12T09:59:20.184Z,26.16
2022-09-12T10:01:53.820Z,26.42
2022-09-12T10:04:26.757Z,26.52
2022-09-12T10:06:57.063Z,26.11
2022-09-12T10:09:27.770Z,26.24
2022-09-12T10:11:56.823Z,26.78
2022-09-12T10:14:30.844Z,26.77
2022-09-12T10:16:59.659Z,26.60
2022-09-12T10:19:42.850Z,26.21
2022-09-12T10:22:18.278Z,26.11
2022-09-12T10:24:52.476Z,25.88
2022-09-12T10:27:26.077Z,25.98
2022-09-12T10:30:06.800Z,25.94
2022-09-12T10:32:40.981Z,25.56
2022-09-12T10:35:28.503Z,25.39
2022-09-12T10:38:03.295Z,25.97
2022-09-12T10:40:40.119Z,25.96
2022-09-12T10:43:24.236Z,25.46
2022-09-12T10:45:52.054Z,25.13
2022-09-12T10:48:28.899Z,24.91
2022-09-12T10:50:58.112Z,24.66
2022-09-12T10:53:40.896Z,24.74
2022-09-12T10:56:17.775Z,24.58
2022-09-12T10:58:54.468Z,24.50
2022-09-12T11:01:21.883Z,24.29
2022-09-12T11:04:08.099Z,24.50
2022-09-12T11:06:58.610Z,24.58
2022-09-12T11:10:11.727Z,24.52
2022-09-12T11:12:49.712Z,24.51
2022-09-12T11:15:54.951Z,24.27
2022-09-12T11:18:53.963Z,24.15
2022-09-12T11:21:59.057Z,23.93
2022-09-12T11:24:37.719Z,23.86
2022-09-12T11:27:25.562Z,23.93
2022-09-12T11:29:59.417Z,23.97
2022-09-12T11:32:49.306Z,24.85
2022-09-12T11:35:31.037Z,25.37
2022-09-12T11:38:43.196Z,25.30
2022-09-12T11:41:19.037Z,24.84
2022-09-12T11:43:49.579Z,24.43
2022-09-12T11:46:25.773Z,24.70
2022-09-12T11:49:14.032Z,25.09
2022-09-12T11:51:48.322Z,25.74
2022-09-12T11:54:25.107Z,25.85
2022-09-12T11:57:21.089Z,25.92
2022-09-12T11:59:51.500Z,26.43
2022-09-12T12:02:48.327Z,26.60
2022-09-12T12:05:31.747Z,26.80
2022-09-12T12:08:01.905Z,27.00
2022-09-12T12:10:32.359Z,26.66
2022-09-12T12:13:03.253Z,26.22
2022-09-12T12:15:31.918Z,26.03
2022-09-12T12:18:06.152Z,25.76
2022-09-12T12:20:34.075Z,26.19
2022-09-12T12:23:01.571Z,26.38
2022-09-12T12:25:51.832Z,26.58
2022-09-12T12:28:41.370Z,26.76
2022-09-12T12:31:10.626Z,26.84
2022-09-12T12:33:38.406Z,26.59
2022-09-12T12:36:09.557Z,26.38
2022-09-12T12:38:39.245Z,26.41
2022-09-12T12:41:19.278Z,26.04
2022-09-12T12:43:51.943Z,25.84
2022-09-12T12:46:25.744Z,26.13
2022-09-12T12:49:24.507Z,26.39
2022-09-12T12:51:59.079Z,26.17
2022-09-12T12:54:34.032Z,25.81
2022-09-12T12:57:03.143Z,25.69
2022-09-12T12:59:31.269Z,25.94
2022-09-12T13:02:00.082Z,26.01
2022-09-12T13:04:32.658Z,26.08
2022-09-12T13:07:08.335Z,26.30
2022-09-12T13:09:46.819Z,26.22
2022-09-12T13:12:25.105Z,26.39
2022-09-12T13:14:59.388Z,26.05
2022-09-12T13:17:41.471Z,25.83
2022-09-12T13:20:29.954Z,25.72
2022-09-12T13:22:58.415Z,25.31
2022-09-12T13:25:33.360Z,25.22
2022-09-12T13:28:18.529Z,24.99
2022-09-12T13:30:56.342Z,24.78
2022-09-12T13:33:42.326Z,24.65
2022-09-12T13:36:22.257Z,24.95
2022-09-12T13:39:13.820Z,25.37
2022-09-12T13:41:44.283Z,25.49
2022-09-12T13:44:15.680Z,25.83
2022-09-12T13:46:44.287Z,25.96
2022-09-12T13:49:22.789Z,25.86
2022-09-12T13:52:01.959Z,26.10
2022-09-12T13:54:30.868Z,26.29
2022-09-12T13:56:59.849Z,26.50
2022-09-12T13:59:27.479Z,26.29
2022-09-12T14:01:54.952Z,26.26
2022-09-12T14:04:43.968Z,26.22
2022-09-12T14:07:22.230Z,26.13
2022-09-12T14:09:56.843Z,26.08
2022-09-12T14:12:25.836Z,26.07
2022-09-12T14:14:54.028Z,26.17
2022-09-12T14:17:31.595Z,25.85
2022-09-12T14:20:11.824Z,25.76
2022-09-12T14:22:40.864Z,25.63
2022-09-12T14:25:16.329Z,25.72
2022-09-12T14:27:50.812Z,25.58
2022-09-12T14:30:24.335Z,25.41
2022-09-12T14:33:09.913Z,25.25
2022-09-12T14:35:43.399Z,25.09
2022-09-12T14:38:21.880Z,24.89
2022-09-12T14:40:53.801Z,24.82
2022-09-12T14:43:26.721Z,25.07
2022-09-12T14:46:15.957Z,25.19
2022-09-12T14:49:14.756Z,25.21
2022-09-12T14:52:22.352Z,25.46
2022-09-12T14:55:00.863Z,25.67
2022-09-12T14:57:31.217Z,25.60
2022-09-12T15:00:13.888Z,25.62
2022-09-12T15:02:44.969Z,25.43
2022-09-12T15:05:12.320Z,25.31
2022-09-12T15:07:53.906Z,24.95
2022-09-12T15:10:35.220Z,24.84
2022-09-12T15:13:05.663Z,25.10
2022-09-12T15:15:33.406Z,25.06
2022-09-12T15:18:05.794Z,25.13
2022-09-12T15:20:37.684Z,25.11
2022-09-12T15:23:08.417Z,24.99
2022-09-12T15:25:36.131Z,24.97
2022-09-12T15:28:15.380Z,24.83
2022-09-12T15:30:43.204Z,24.68
2022-09-12T15:33:12.026Z,24.62
2022-09-12T15:35:39.521Z,24.56
2022-09-12T15:38:07.423Z,24.53
2022-09-12T15:40:34.849Z,24.42
2022-09-12T15:43:03.056Z,24.45
2022-09-12T15:45:33.585Z,24.39
2022-09-12T15:48:02.779Z,24.30
2022-09-12T15:50:31.019Z,24.19
2022-09-12T15:52:58.777Z,24.16
2022-09-12T15:55:32.482Z,24.16
2022-09-12T15:58:04.832Z,24.11
2022-09-12T16:00:34.466Z,24.08
2022-09-12T16:03:02.292Z,24.02
2022-09-12T16:05:29.770Z,23.81
2022-09-12T16:07:57.171Z,23.71
2022-09-12T16:10:28.979Z,23.61
2022-09-12T16:12:56.822Z,23.49
2022-09-12T16:15:25.967Z,23.36
2022-09-12T16:17:53.999Z,23.23
2022-09-12T16:20:22.323Z,23.08
2022-09-12T16:22:49.696Z,22.99
2022-09-12T16:25:18.231Z,22.81
2022-09-12T16:27:46.642Z,22.71
2022-09-12T16:30:15.871Z,22.63
2022-09-12T16:32:43.557Z,22.48
2022-09-12T16:35:10.966Z,22.38
2022-09-12T16:37:38.564Z,22.35
2022-09-12T16:40:07.296Z,22.25
2022-09-12T16:42:35.800Z,22.15
2022-09-12T16:45:03.431Z,22.09
2022-09-12T16:47:32.297Z,21.95
2022-09-12T16:49:59.695Z,21.94
2022-09-12T16:52:27.411Z,21.83
2022-09-12T16:54:55.093Z,21.69
2022-09-12T16:57:23.426Z,21.56
2022-09-12T16:59:50.911Z,21.42
2022-09-12T17:02:18.641Z,21.28
2022-09-12T17:04:46.256Z,21.19
2022-09-12T17:07:13.653Z,20.98
2022-09-12T17:09:43.321Z,20.88
2022-09-12T17:12:13.645Z,20.78
2022-09-12T17:14:41.283Z,20.75
2022-09-12T17:17:08.732Z,20.66
2022-09-12T17:19:36.161Z,20.58
2022-09-12T17:22:03.906Z,20.56
2022-09-12T17:24:31.435Z,20.57
2022-09-12T17:26:59.432Z,20.52
2022-09-12T17:29:27.560Z,20.55
2022-09-12T17:31:55.754Z,20.38
2022-09-12T17:34:23.515Z,20.35
2022-09-12T17:36:51.290Z,20.30
2022-09-12T17:39:18.823Z,20.54
2022-09-12T17:41:46.292Z,20.63
2022-09-12T17:44:15.185Z,20.51
2022-09-12T17:46:43.151Z,20.43
2022-09-12T17:49:15.830Z,20.36
2022-09-12T17:51:44.520Z,20.23
2022-09-12T17:54:15.780Z,20.14
2022-09-12T17:56:46.598Z,20.08
2022-09-12T17:59:17.302Z,20.00
2022-09-12T18:02:04.069Z,19.98
2022-09-12T18:04:31.924Z,19.86
2022-09-12T18:07:00.468Z,19.87
2022-09-12T18:09:28.450Z,19.73
2022-09-12T18:11:56.399Z,19.74
2022-09-12T18:14:24.154Z,19.72
2022-09-12T18:16:52.457Z,19.66
2022-09-12T18:19:20.464Z,19.60
2022-09-12T18:21:49.675Z,19.61
2022-09-12T18:24:17.947Z,19.58
2022-09-12T18:26:45.761Z,19.53
2022-09-12T18:29:16.891Z,19.51
2022-09-12T18:31:44.483Z,19.47
2022-09-12T18:34:13.836Z,19.40
2022-09-12T18:36:44.523Z,19.37
2022-09-12T18:39:12.825Z,19.31
2022-09-12T18:41:41.007Z,19.31
2022-09-12T18:44:11.556Z,19.22
2022-09-12T18:46:39.474Z,19.14
2022-09-12T18:49:07.822Z,19.10
2022-09-12T18:51:36.895Z,18.99
2022-09-12T18:54:08.765Z,18.94
2022-09-12T18:56:38.321Z,18.96
2022-09-12T18:59:07.166Z,18.84
2022-09-12T19:01:37.045Z,18.75
2022-09-12T19:04:06.537Z,18.46
2022-09-12T19:06:37.710Z,18.37
2022-09-12T19:09:08.181Z,18.29
2022-09-12T19:11:38.612Z,18.07
2022-09-12T19:14:07.529Z,18.06
2022-09-12T19:16:35.475Z,17.91
2022-09-12T19:19:03.777Z,17.76
2022-09-12T19:21:32.948Z,17.71
2022-09-12T19:24:04.126Z,17.60
2022-09-12T19:26:33.067Z,17.52
2022-09-12T19:29:02.986Z,17.52
2022-09-12T19:31:31.353Z,17.38
2022-09-12T19:34:04.520Z,17.34
2022-09-12T19:36:47.772Z,17.35
2022-09-12T19:39:17.432Z,17.32
2022-09-12T19:41:45.554Z,17.30
2022-09-12T19:44:13.396Z,17.29
2022-09-12T19:46:41.163Z,17.18
2022-09-12T19:49:10.320Z,17.16
2022-09-12T19:51:37.892Z,17.05
2022-09-12T19:54:06.248Z,17.11
2022-09-12T19:56:33.644Z,17.16
2022-09-12T19:59:01.036Z,17.12
2022-09-12T20:01:29.062Z,17.02
2022-09-12T20:03:58.260Z,17.01
2022-09-12T20:06:26.863Z,16.84
2022-09-12T20:08:55.069Z,16.75
2022-09-12T20:11:25.617Z,16.69
2022-09-12T20:13:53.588Z,16.48
2022-09-12T20:16:26.599Z,16.36
2022-09-12T20:18:59.673Z,16.28
2022-09-12T20:21:32.397Z,16.21
2022-09-12T20:24:12.602Z,16.19
2022-09-12T20:26:40.920Z,16.21
2022-09-12T20:29:10.573Z,16.20
2022-09-12T20:31:39.980Z,16.13
2022-09-12T20:34:12.546Z,16.15
2022-09-12T20:36:40.250Z,16.04
2022-09-12T20:39:07.752Z,16.04
2022-09-12T20:41:36.142Z,16.08
2022-09-12T20:44:04.081Z,16.07
2022-09-12T20:46:31.572Z,16.12
2022-09-12T20:48:59.227Z,16.13
2022-09-12T20:51:29.683Z,16.14
2022-09-12T20:54:02.032Z,16.17
2022-09-12T20:56:31.776Z,16.18
2022-09-12T20:59:00.006Z,16.08
2022-09-12T21:01:29.422Z,16.03
2022-09-12T21:03:57.646Z,15.90
2022-09-12T21:06:25.064Z,15.78
2022-09-12T21:08:53.229Z,15.86
2022-09-12T21:11:21.137Z,15.87
2022-09-12T21:13:48.673Z,15.78
2022-09-12T21:16:19.506Z,15.67
2022-09-12T21:18:52.771Z,15.59
2022-09-12T21:21:20.988Z,15.53
2022-09-12T21:23:50.683Z,15.40
2022-09-12T21:26:18.709Z,15.38
2022-09-12T21:28:46.140Z,15.35
2022-09-12T21:31:13.903Z,15.32
2022-09-12T21:33:41.327Z,15.37
2022-09-12T21:36:09.700Z,15.40
2022-09-12T21:38:37.547Z,15.27
2022-09-12T21:41:06.284Z,15.16
2022-09-12T21:43:34.185Z,15.13
2022-09-12T21:46:02.184Z,15.14
2022-09-12T21:48:30.099Z,15.11
2022-09-12T21:50:57.580Z,15.15
2022-09-12T21:53:25.607Z,15.18
2022-09-12T21:55:52.999Z,15.20
2022-09-12T21:58:20.426Z,15.13
2022-09-12T22:00:48.185Z,15.18
2022-09-12T22:03:17.148Z,15.03
2022-09-12T22:05:44.606Z,14.95
2022-09-12T22:08:12.126Z,14.94
2022-09-12T22:10:40.304Z,14.94
2022-09-12T22:13:08.171Z,15.05
2022-09-12T22:15:40.539Z,15.03
2022-09-12T22:18:08.856Z,15.06
2022-09-12T22:20:36.688Z,15.10
2022-09-12T22:23:25.063Z,15.10
2022-09-12T22:25:56.742Z,15.18
2022-09-12T22:28:25.192Z,15.22
2022-09-12T22:30:54.751Z,15.28
2022-09-12T22:33:22.275Z,15.27
2022-09-12T22:35:49.653Z,15.17
2022-09-12T22:38:17.357Z,15.13
2022-09-12T22:40:44.814Z,15.15
2022-09-12T22:43:12.499Z,14.95
2022-09-12T22:45:43.081Z,15.01
2022-09-12T22:48:10.541Z,14.96
2022-09-12T22:50:37.990Z,14.97
2022-09-12T22:53:05.711Z,14.77
2022-09-12T22:55:33.263Z,14.72
2022-09-12T22:58:00.876Z,14.83
2022-09-12T23:00:29.769Z,14.80
2022-09-12T23:02:58.408Z,14.83
2022-09-12T23:05:25.873Z,14.89
2022-09-12T23:07:53.590Z,14.93
2022-09-12T23:10:21.456Z,14.96
2022-09-12T23:12:49.853Z,15.08
2022-09-12T23:15:17.535Z,15.16
2022-09-12T23:17:45.015Z,15.22
2022-09-12T23:20:12.546Z,15.18
2022-09-12T23:22:40.233Z,15.08
2022-09-12T23:25:08.073Z,15.09
2022-09-12T23:27:35.497Z,14.90
2022-09-12T23:30:03.520Z,14.61
2022-09-12T23:32:31.234Z,14.69
2022-09-12T23:34:59.070Z,14.57
2022-09-12T23:37:27.006Z,14.23
2022-09-12T23:39:54.409Z,14.10
2022-09-12T23:42:22.177Z,14.02
2022-09-12T23:44:49.855Z,14.14
2022-09-12T23:47:18.471Z,14.16
2022-09-12T23:49:45.931Z,14.32
2022-09-12T23:52:13.681Z,14.49
2022-09-12T23:54:41.168Z,14.61
2022-09-12T23:57:08.631Z,14.79
2022-09-12T23:59:36.309Z,14.85
